| time (UTC) | temp F | wind direction | speed MPH | gust MPH | rain 1hr in | rain 24hr in | rain mn in | humidity % | barometer mb |
| 20260504110258 | 75 | 0.0 | 0.0 | 0.00 | 0.10 | 0.00 | 93 | 1010.0 | |
| 20260504100348 | 75 | 0.0 | 0.0 | 0.00 | 0.10 | 0.00 | 93 | 1009.7 | |
| 20260504081811 | 76 | 0.0 | 0.0 | 0.00 | 0.10 | 0.00 | 93 | 1010.0 | |
| 20260504081215 | 76 | 0.0 | 0.0 | 0.00 | 0.10 | 0.00 | 93 | 1010.1 | |
| 20260504080659 | 76 | 0.0 | 0.0 | 0.00 | 0.10 | 0.00 | 93 | 1010.2 | |
| 20260504080134 | 76 | 0.0 | 0.0 | 0.00 | 0.10 | 0.00 | 93 | 1010.2 | |
| 20260504070246 | 76 | 0.0 | 0.0 | 0.00 | 0.10 | 0.00 | 93 | 1010.9 | |
| 20260504050437 | 77 | 0.0 | 0.0 | 0.01 | 0.09 | 0.09 | 92 | 1013.1 | |
| 20260504050113 | 77 | 0.0 | 0.0 | 0.01 | 0.09 | 0.09 | 92 | 1013.2 | |
| 20260504045331 | 77 | 0.0 | 0.0 | 0.01 | 0.09 | 0.09 | 92 | 1013.3 | |
| 20260504044805 | 77 | 0.0 | 0.0 | 0.02 | 0.09 | 0.09 | 92 | 1013.3 | |
| 20260504044222 | 77 | 0.0 | 0.0 | 0.02 | 0.09 | 0.09 | 92 | 1013.2 | |
| 20260504043655 | 77 | 0.0 | 0.0 | 0.01 | 0.08 | 0.08 | 92 | 1013.3 | |
| 20260504043144 | 78 | 0.0 | 0.0 | 0.01 | 0.08 | 0.08 | 92 | 1013.3 | |
| 20260504043054 | 78 | 0.0 | 0.0 | 0.01 | 0.08 | 0.08 | 92 | 1013.2 | |
| 20260504042036 | 78 | 0.0 | 0.0 | 0.01 | 0.08 | 0.08 | 92 | 1013.2 | |
| 20260504041452 | 78 | 0.0 | 0.0 | 0.01 | 0.08 | 0.08 | 92 | 1013.2 | |
| 20260504041116 | 78 | 0.0 | 0.0 | 0.01 | 0.08 | 0.08 | 92 | 1013.3 | |
| 20260504040350 | 78 | 0.0 | 0.0 | 0.01 | 0.08 | 0.08 | 92 | 1013.2 | |
| 20260504035824 | 78 | 0.0 | 0.0 | 0.01 | 0.08 | 0.08 | 92 | 1013.2 | |
| 20260504035254 | 78 | 0.0 | 0.0 | 0.01 | 0.08 | 0.08 | 92 | 1013.2 | |
| 20260504034711 | 78 | 0.0 | 0.0 | 0.00 | 0.07 | 0.07 | 92 | 1013.2 | |
| 20260504034402 | 78 | 167 | 0.0 | 1.0 | 0.00 | 0.07 | 0.07 | 92 | 1013.2 |
| 20260504033800 | 78 | 167 | 0.0 | 3.0 | 0.00 | 0.07 | 0.07 | 92 | 1013.1 |
| 20260504033035 | 78 | 167 | 0.0 | 3.0 | 0.00 | 0.07 | 0.07 | 91 | 1013.1 |
| 20260504032738 | 78 | 182 | 0.0 | 3.0 | 0.00 | 0.07 | 0.07 | 91 | 1013.0 |
| 20260504032013 | 78 | 206 | 0.0 | 3.0 | 0.00 | 0.07 | 0.07 | 91 | 1012.9 |
| 20260504031450 | 78 | 188 | 0.0 | 1.0 | 0.00 | 0.07 | 0.07 | 91 | 1012.9 |
| 20260504030925 | 78 | 189 | 0.0 | 2.0 | 0.00 | 0.07 | 0.07 | 91 | 1012.8 |
| 20260504030405 | 78 | 207 | 0.0 | 2.0 | 0.00 | 0.07 | 0.07 | 91 | 1012.8 |
| 20260504025903 | 78 | 188 | 0.0 | 3.0 | 0.00 | 0.07 | 0.07 | 91 | 1012.7 |
| 20260504025404 | 78 | 207 | 0.0 | 3.0 | 0.00 | 0.07 | 0.07 | 91 | 1012.7 |
| 20260504024857 | 78 | 190 | 0.0 | 2.0 | 0.00 | 0.07 | 0.07 | 91 | 1012.7 |
| 20260504024336 | 78 | 207 | 0.0 | 2.0 | 0.00 | 0.07 | 0.07 | 91 | 1012.6 |
| 20260504023814 | 78 | 186 | 0.0 | 1.0 | 0.00 | 0.07 | 0.07 | 91 | 1012.6 |
| 20260504023311 | 78 | 188 | 0.0 | 3.0 | 0.00 | 0.07 | 0.07 | 91 | 1012.4 |
| 20260504022807 | 78 | 218 | 0.0 | 3.0 | 0.00 | 0.07 | 0.07 | 91 | 1012.3 |
| 20260504022308 | 78 | 207 | 0.0 | 2.0 | 0.00 | 0.07 | 0.07 | 91 | 1012.2 |
| 20260504021746 | 78 | 186 | 0.0 | 2.0 | 0.01 | 0.07 | 0.07 | 91 | 1012.3 |
| 20260504021234 | 78 | 186 | 0.0 | 2.0 | 0.01 | 0.07 | 0.07 | 91 | 1012.4 |
| 20260504020659 | 78 | 207 | 0.0 | 2.0 | 0.01 | 0.07 | 0.07 | 91 | 1012.5 |
| 20260504020200 | 78 | 186 | 0.0 | 2.0 | 0.01 | 0.07 | 0.07 | 91 | 1012.5 |
| 20260504015652 | 78 | 188 | 0.0 | 3.0 | 0.01 | 0.07 | 0.07 | 91 | 1012.5 |
| 20260504015149 | 78 | 187 | 0.0 | 3.0 | 0.02 | 0.07 | 0.07 | 90 | 1012.5 |
| 20260504014915 | 79 | 185 | 0.0 | 3.0 | 0.02 | 0.07 | 0.07 | 90 | 1012.6 |
| 20260504014147 | 79 | 186 | 0.0 | 3.0 | 0.02 | 0.07 | 0.07 | 90 | 1012.5 |
| 20260504013641 | 79 | 203 | 0.0 | 1.0 | 0.02 | 0.07 | 0.07 | 90 | 1012.5 |
| 20260504013138 | 79 | 186 | 0.0 | 1.0 | 0.02 | 0.07 | 0.07 | 90 | 1012.4 |
| 20260504012614 | 79 | 186 | 0.0 | 1.0 | 0.03 | 0.07 | 0.07 | 90 | 1012.4 |
| 20260504012313 | 79 | 186 | 0.0 | 1.0 | 0.02 | 0.06 | 0.06 | 90 | 1012.3 |
| 20260504011520 | 79 | 185 | 0.0 | 1.0 | 0.03 | 0.06 | 0.06 | 90 | 1012.3 |
| 20260504010951 | 79 | 186 | 0.0 | 4.0 | 0.04 | 0.06 | 0.06 | 90 | 1012.2 |
| 20260504010447 | 79 | 186 | 0.0 | 4.0 | 0.04 | 0.06 | 0.06 | 90 | 1012.0 |
| 20260504005947 | 79 | 167 | 0.0 | 1.0 | 0.04 | 0.06 | 0.06 | 90 | 1011.9 |
| 20260504005420 | 79 | 168 | 0.0 | 3.0 | 0.03 | 0.06 | 0.06 | 90 | 1011.9 |
| 20260504004919 | 79 | 184 | 0.0 | 4.0 | 0.03 | 0.06 | 0.06 | 90 | 1011.8 |
| 20260504004419 | 80 | 167 | 0.0 | 4.0 | 0.04 | 0.06 | 0.06 | 90 | 1011.6 |
| 20260504003918 | 80 | 162 | 0.0 | 2.0 | 0.04 | 0.06 | 0.06 | 89 | 1011.6 |
| 20260504003414 | 80 | 163 | 0.0 | 2.0 | 0.03 | 0.05 | 0.05 | 89 | 1011.5 |
| 20260504002915 | 80 | 178 | 0.0 | 2.0 | 0.02 | 0.04 | 0.04 | 89 | 1011.5 |
| 20260504002348 | 80 | 178 | 0.0 | 2.0 | 0.02 | 0.04 | 0.04 | 89 | 1011.5 |
| 20260504001819 | 80 | 161 | 0.0 | 4.0 | 0.02 | 0.03 | 0.03 | 89 | 1011.4 |
| 20260504001318 | 80 | 178 | 0.0 | 4.0 | 0.02 | 0.03 | 0.03 | 89 | 1011.4 |
| 20260504000749 | 80 | 65 | 0.0 | 2.0 | 0.02 | 0.02 | 0.02 | 89 | 1011.3 |
| 20260504000248 | 80 | 65 | 0.0 | 2.0 | 0.02 | 0.02 | 0.02 | 88 | 1011.2 |
| 20260503235719 | 80 | 60 | 0.0 | 2.0 | 0.02 | 0.02 | 0.02 | 88 | 1011.1 |
| 20260503235218 | 80 | 65 | 0.0 | 2.0 | 0.02 | 0.02 | 0.02 | 88 | 1011.1 |
| 20260503234652 | 80 | 59 | 0.0 | 2.0 | 0.02 | 0.02 | 0.02 | 88 | 1010.9 |
| 20260503234405 | 81 | 65 | 0.0 | 1.0 | 0.02 | 0.02 | 0.02 | 88 | 1010.8 |
| 20260503233907 | 81 | 65 | 0.0 | 1.0 | 0.02 | 0.02 | 0.02 | 88 | 1010.9 |
| 20260503233118 | 81 | 65 | 0.0 | 0.0 | 0.02 | 0.02 | 0.02 | 88 | 1010.8 |
| 20260503232617 | 81 | 59 | 0.0 | 0.0 | 0.02 | 0.02 | 0.02 | 87 | 1010.7 |
| 20260503232109 | 81 | 59 | 0.0 | 1.0 | 0.01 | 0.01 | 0.01 | 87 | 1010.7 |
| 20260503231832 | 81 | 59 | 0.0 | 1.0 | 0.01 | 0.01 | 0.01 | 87 | 1010.5 |
| 20260503231044 | 81 | 59 | 0.0 | 1.0 | 0.01 | 0.01 | 0.01 | 87 | 1010.4 |
| 20260503230512 | 81 | 59 | 0.0 | 0.0 | 0.00 | 0.00 | 0.01 | 87 | 1010.4 |
| 20260503230013 | 82 | 59 | 0.0 | 0.0 | 0.00 | 0.00 | 0.00 | 87 | 1010.3 |
| 20260503225736 | 82 | 59 | 0.0 | 0.0 | 0.00 | 0.00 | 0.00 | 87 | 1010.3 |
| 20260503224948 | 82 | 59 | 0.0 | 1.0 | 0.00 | 0.00 | 0.00 | 87 | 1010.1 |
| 20260503224413 | 82 | 65 | 0.0 | 1.0 | 0.00 | 0.00 | 0.00 | 87 | 1010.1 |
| 20260503223909 | 82 | 59 | 0.0 | 0.0 | 0.00 | 0.00 | 0.00 | 87 | 1010.0 |
| 20260503223405 | 82 | 59 | 0.0 | 0.0 | 0.00 | 0.00 | 0.00 | 87 | 1010.1 |
| 20260503222838 | 82 | 65 | 0.0 | 1.0 | 0.00 | 0.00 | 0.00 | 87 | 1010.1 |
| 20260503222314 | 82 | 65 | 0.0 | 1.0 | 0.00 | 0.00 | 0.00 | 86 | 1010.1 |
| 20260503222007 | 82 | 65 | 0.0 | 0.0 | 0.00 | 0.00 | 0.00 | 86 | 1010.1 |
| 20260503221244 | 82 | 65 | 0.0 | 0.0 | 0.00 | 0.00 | 0.00 | 86 | 1010.1 |
| 20260503220715 | 82 | 65 | 0.0 | 0.0 | 0.00 | 0.00 | 0.00 | 86 | 1010.0 |
| 20260503220214 | 82 | 65 | 0.0 | 0.0 | 0.00 | 0.00 | 0.00 | 86 | 1010.0 |
| 20260503215659 | 82 | 59 | 0.0 | 0.0 | 0.00 | 0.00 | 0.00 | 86 | 1010.0 |
| 20260503215204 | 82 | 65 | 0.0 | 0.0 | 0.00 | 0.00 | 0.00 | 86 | 1010.0 |
| 20260503214635 | 82 | 65 | 0.0 | 0.0 | 0.00 | 0.00 | 0.00 | 86 | 1010.1 |
| 20260503214132 | 82 | 65 | 0.0 | 1.0 | 0.00 | 0.00 | 0.00 | 86 | 1010.1 |
| 20260503213632 | 82 | 59 | 0.0 | 1.0 | 0.00 | 0.00 | 0.00 | 86 | 1010.2 |
| 20260503213126 | 82 | 59 | 0.0 | 1.0 | 0.00 | 0.00 | 0.00 | 87 | 1010.2 |
| 20260503212626 | 82 | 59 | 0.0 | 1.0 | 0.00 | 0.00 | 0.00 | 87 | 1010.3 |
| 20260503212322 | 82 | 59 | 0.0 | 1.0 | 0.00 | 0.00 | 0.00 | 87 | 1010.4 |
| 20260503211531 | 82 | 59 | 0.0 | 1.0 | 0.00 | 0.00 | 0.00 | 87 | 1010.3 |
| 20260503211030 | 82 | 59 | 0.0 | 1.0 | 0.00 | 0.00 | 0.00 | 87 | 1010.3 |
| 20260503210525 | 82 | 59 | 0.0 | 1.0 | 0.00 | 0.00 | 0.00 | 87 | 1010.3 |
| 20260503210024 | 82 | 60 | 0.0 | 1.0 | 0.00 | 0.00 | 0.00 | 88 | 1010.3 |
| 20260503205455 | 82 | 59 | 0.0 | 1.0 | 0.00 | 0.00 | 0.00 | 88 | 1010.1 |
| 20260503204954 | 82 | 60 | 0.0 | 1.0 | 0.00 | 0.00 | 0.00 | 88 | 1010.0 |
| 20260503204642 | 82 | 59 | 0.0 | 1.0 | 0.00 | 0.00 | 0.00 | 88 | 1010.3 |
| 20260503203924 | 82 | 59 | 0.0 | 1.0 | 0.00 | 0.00 | 0.00 | 88 | 1010.2 |
| 20260503203410 | 81 | 58 | 0.0 | 1.0 | 0.00 | 0.00 | 0.00 | 88 | 1010.2 |
| 20260503202854 | 82 | 59 | 0.0 | 1.0 | 0.00 | 0.00 | 0.00 | 88 | 1010.3 |
| 20260503202328 | 82 | 59 | 0.0 | 1.0 | 0.00 | 0.00 | 0.00 | 88 | 1010.3 |
| 20260503201813 | 82 | 65 | 0.0 | 1.0 | 0.00 | 0.00 | 0.00 | 88 | 1010.3 |
| 20260503201318 | 82 | 59 | 0.0 | 1.0 | 0.00 | 0.00 | 0.00 | 88 | 1010.3 |
| 20260503200749 | 82 | 59 | 0.0 | 1.0 | 0.00 | 0.00 | 0.00 | 88 | 1010.3 |
| 20260503200245 | 83 | 59 | 0.0 | 1.0 | 0.00 | 0.00 | 0.00 | 87 | 1010.5 |
| 20260503195740 | 83 | 59 | 1.0 | 1.0 | 0.00 | 0.00 | 0.00 | 88 | 1010.6 |
| 20260503195216 | 83 | 59 | 0.0 | 1.0 | 0.00 | 0.00 | 0.00 | 88 | 1010.5 |
| 20260503194647 | 82 | 59 | 0.0 | 1.0 | 0.00 | 0.00 | 0.00 | 88 | 1010.5 |
| 20260503194146 | 82 | 59 | 0.0 | 1.0 | 0.00 | 0.00 | 0.00 | 88 | 1010.5 |
| 20260503193616 | 82 | 59 | 0.0 | 1.0 | 0.00 | 0.00 | 0.00 | 87 | 1010.6 |
| 20260503193113 | 83 | 59 | 0.0 | 1.0 | 0.00 | 0.00 | 0.00 | 88 | 1010.6 |
| 20260503192611 | 83 | 59 | 0.0 | 1.0 | 0.00 | 0.00 | 0.00 | 86 | 1010.6 |
| 20260503192110 | 84 | 69 | 0.0 | 2.0 | 0.00 | 0.00 | 0.00 | 86 | 1010.7 |
| 20260503191542 | 85 | 59 | 0.0 | 2.0 | 0.00 | 0.00 | 0.00 | 85 | 1010.6 |
| 20260503191036 | 85 | 69 | 1.0 | 1.0 | 0.00 | 0.00 | 0.00 | 86 | 1010.6 |
| 20260503190755 | 84 | 65 | 1.0 | 1.0 | 0.00 | 0.00 | 0.00 | 86 | 1010.6 |
| 20260503190034 | 84 | 65 | 1.0 | 1.0 | 0.00 | 0.00 | 0.00 | 87 | 1010.8 |
| 20260503185508 | 84 | 142 | 0.0 | 1.0 | 0.00 | 0.00 | 0.00 | 88 | 1010.9 |
| 20260503185001 | 84 | 177 | 0.0 | 1.0 | 0.00 | 0.00 | 0.00 | 88 | 1011.0 |
| 20260503184500 | 84 | 166 | 0.0 | 1.0 | 0.00 | 0.00 | 0.00 | 88 | 1011.1 |
| 20260503183955 | 84 | 149 | 0.0 | 1.0 | 0.00 | 0.00 | 0.00 | 88 | 1011.1 |
| 20260503183456 | 84 | 148 | 0.0 | 1.0 | 0.00 | 0.00 | 0.00 | 87 | 1011.1 |
| 20260503182925 | 84 | 148 | 0.0 | 1.0 | 0.00 | 0.00 | 0.00 | 87 | 1011.3 |
| 20260503182650 | 84 | 148 | 0.0 | 1.0 | 0.00 | 0.00 | 0.00 | 86 | 1011.4 |
| 20260503181855 | 85 | 148 | 0.0 | 1.0 | 0.00 | 0.00 | 0.00 | 86 | 1011.5 |
| 20260503181355 | 85 | 148 | 0.0 | 1.0 | 0.00 | 0.00 | 0.00 | 85 | 1011.5 |
| 20260503180825 | 85 | 148 | 1.0 | 1.0 | 0.00 | 0.00 | 0.00 | 86 | 1011.6 |
| 20260503180813 | 85 | 148 | 1.0 | 1.0 | 0.00 | 0.00 | 0.00 | 86 | 1011.7 |
| 20260503175755 | 85 | 167 | 1.0 | 1.0 | 0.00 | 0.00 | 0.00 | 85 | 1011.8 |
| 20260503175254 | 85 | 148 | 1.0 | 1.0 | 0.00 | 0.00 | 0.00 | 85 | 1011.8 |
| 20260503174728 | 86 | 148 | 1.0 | 1.0 | 0.00 | 0.00 | 0.00 | 85 | 1011.8 |
| 20260503174213 | 85 | 149 | 1.0 | 1.0 | 0.00 | 0.00 | 0.00 | 86 | 1011.8 |
| 20260503173718 | 85 | 148 | 1.0 | 1.0 | 0.00 | 0.00 | 0.00 | 85 | 1011.9 |
| 20260503173213 | 85 | 149 | 1.0 | 1.0 | 0.00 | 0.00 | 0.00 | 85 | 1011.8 |
| 20260503172710 | 85 | 149 | 1.0 | 1.0 | 0.00 | 0.00 | 0.00 | 84 | 1011.8 |
| 20260503172141 | 85 | 148 | 0.0 | 1.0 | 0.00 | 0.00 | 0.00 | 84 | 1011.8 |
| 20260503171621 | 85 | 148 | 0.0 | 1.0 | 0.00 | 0.00 | 0.00 | 84 | 1011.9 |
| 20260503171049 | 85 | 166 | 0.0 | 1.0 | 0.00 | 0.00 | 0.00 | 84 | 1012.1 |
| 20260503170546 | 85 | 148 | 0.0 | 1.0 | 0.00 | 0.00 | 0.00 | 83 | 1012.3 |
| 20260503150554 | 86 | 167 | 1.0 | 4.0 | 0.00 | 0.00 | 0.00 | 79 | 1012.4 |
| 20260503131020 | 79 | 189 | 1.0 | 4.0 | 0.00 | 0.00 | 0.00 | 86 | 1012.0 |
| 20260503130520 | 78 | 188 | 1.0 | 2.0 | 0.00 | 0.00 | 0.00 | 88 | 1011.8 |